Time;durP1;ratioP1;P1;durP2;ratioP2;P2;SDS_P1;SDS_P2;PMS_P1;PMS_P2;Temp;Humidity;BMP_temperature;BMP_pressure;BME280_temperature;BME280_humidity;BME280_pressure;Samples;Min_cycle;Max_cycle;Signal;HPM_P1;HPM_P2
2023/08/04 00:01:19;;;;;;;24.48;16.77;;;;;;;24.99;100.00;100290.41;4973637;28;20059;-79
2023/08/04 00:03:44;;;;;;;28.92;15.77;;;;;;;24.96;99.83;100285.38;4973907;28;20873;-78
2023/08/04 00:06:10;;;;;;;30.08;15.98;;;;;;;24.93;99.61;100286.66;4973995;28;20118;-77
2023/08/04 00:08:36;;;;;;;48.70;17.20;;;;;;;24.95;99.86;100283.72;4974128;28;20042;-77
2023/08/04 00:11:02;;;;;;;29.55;15.60;;;;;;;24.90;99.28;100278.88;4973618;28;20146;-77
2023/08/04 00:13:30;;;;;;;42.03;18.08;;;;;;;24.83;99.22;100281.69;4973756;28;20158;-77
2023/08/04 00:16:07;;;;;;;36.10;17.67;;;;;;;24.82;99.74;100288.25;4973311;28;20479;-75
2023/08/04 00:18:33;;;;;;;28.45;18.25;;;;;;;24.78;99.66;100280.66;4973060;28;20023;-78
2023/08/04 00:20:58;;;;;;;30.02;16.55;;;;;;;24.72;99.65;100290.63;4973450;28;20037;-75
2023/08/04 00:23:23;;;;;;;23.73;17.33;;;;;;;24.79;99.71;100285.94;4973218;28;20033;-76
2023/08/04 00:25:49;;;;;;;23.15;17.00;;;;;;;24.75;100.00;100272.84;4973335;28;20410;-77
2023/08/04 00:28:14;;;;;;;37.65;18.50;;;;;;;24.79;99.61;100268.59;4973345;28;20034;-77
2023/08/04 00:30:40;;;;;;;25.13;16.60;;;;;;;24.71;99.78;100272.44;4972971;28;20035;-76
2023/08/04 00:33:05;;;;;;;21.73;16.08;;;;;;;24.67;99.63;100281.38;4972859;28;20034;-76
2023/08/04 00:35:31;;;;;;;27.70;18.55;;;;;;;24.62;99.06;100265.53;4973133;28;20031;-79
2023/08/04 00:37:56;;;;;;;32.40;17.55;;;;;;;24.69;99.89;100274.59;4972872;28;20026;-77
2023/08/04 00:40:21;;;;;;;20.17;17.02;;;;;;;24.71;99.04;100275.19;4973058;28;20469;-76
2023/08/04 00:42:47;;;;;;;23.58;17.85;;;;;;;24.69;98.61;100271.84;4973052;28;20022;-75
2023/08/04 00:45:12;;;;;;;35.92;18.77;;;;;;;24.71;98.42;100268.84;4972750;28;20038;-75
2023/08/04 00:47:39;;;;;;;32.50;23.40;;;;;;;24.68;98.11;100264.63;4972775;28;20026;-75
2023/08/04 00:50:06;;;;;;;33.67;21.63;;;;;;;24.68;98.10;100266.53;4972639;28;20031;-77
2023/08/04 00:52:32;;;;;;;28.17;21.23;;;;;;;24.64;99.00;100268.94;4972858;28;20026;-75
2023/08/04 00:54:57;;;;;;;21.20;18.67;;;;;;;24.65;99.60;100262.34;4970319;28;20045;-75
2023/08/04 00:57:23;;;;;;;28.75;17.77;;;;;;;24.70;99.57;100264.44;4972774;28;20039;-76
2023/08/04 00:59:49;;;;;;;27.48;18.02;;;;;;;24.63;100.00;100264.50;4972620;28;20438;-75
2023/08/04 01:02:15;;;;;;;43.97;16.45;;;;;;;24.67;100.00;100259.38;4972554;28;20037;-75
2023/08/04 01:04:40;;;;;;;21.15;16.80;;;;;;;24.69;100.00;100266.34;4972585;28;20101;-75
2023/08/04 01:07:25;;;;;;;24.98;16.70;;;;;;;24.61;100.00;100244.63;4972170;28;20058;-76
2023/08/04 01:10:03;;;;;;;41.22;17.40;;;;;;;24.66;100.00;100264.03;4972020;28;20403;-75
2023/08/04 01:12:57;;;;;;;25.88;17.25;;;;;;;24.70;100.00;100270.78;4972198;28;20026;-75
2023/08/04 01:15:24;;;;;;;23.80;18.30;;;;;;;24.68;100.00;100272.91;4972150;28;20073;-77
2023/08/04 01:17:50;;;;;;;23.20;19.48;;;;;;;24.68;100.00;100269.28;4972339;28;20506;-76
2023/08/04 01:20:15;;;;;;;26.65;18.20;;;;;;;24.68;100.00;100267.41;4972083;28;20065;-80
2023/08/04 01:22:41;;;;;;;24.30;20.17;;;;;;;24.68;100.00;100267.41;4972241;28;20402;-76
2023/08/04 01:25:07;;;;;;;35.70;18.70;;;;;;;24.59;100.00;100274.25;4972197;28;20039;-77
2023/08/04 01:27:41;;;;;;;26.90;18.25;;;;;;;24.57;100.00;100270.88;4970865;28;20031;-77
2023/08/04 01:30:11;;;;;;;28.88;18.90;;;;;;;24.41;100.00;100270.59;4972255;28;20031;-76
2023/08/04 01:32:37;;;;;;;27.45;18.55;;;;;;;24.51;100.00;100273.69;4971985;28;20090;-75
2023/08/04 01:35:06;;;;;;;26.33;19.45;;;;;;;24.50;100.00;100267.34;4971927;28;20486;-76
2023/08/04 01:37:32;;;;;;;25.38;19.13;;;;;;;24.49;100.00;100265.69;4971493;28;20027;-78
2023/08/04 01:39:58;;;;;;;24.17;20.02;;;;;;;24.46;100.00;100260.63;4971877;28;20050;-77
2023/08/04 01:42:23;;;;;;;32.00;21.50;;;;;;;24.47;100.00;100259.53;4971745;28;20033;-75
2023/08/04 01:44:48;;;;;;;33.15;20.02;;;;;;;24.41;100.00;100260.44;4971936;28;20536;-77
2023/08/04 01:47:14;;;;;;;31.60;20.17;;;;;;;24.41;100.00;100265.94;4971569;28;20193;-75
2023/08/04 01:49:39;;;;;;;22.88;17.85;;;;;;;24.33;100.00;100260.72;4971634;28;20089;-77
2023/08/04 01:52:05;;;;;;;31.65;18.50;;;;;;;24.29;100.00;100264.97;4971659;28;20500;-77
2023/08/04 01:54:30;;;;;;;37.55;20.05;;;;;;;24.31;100.00;100262.84;4971447;28;20031;-76
2023/08/04 01:56:56;;;;;;;41.17;18.67;;;;;;;24.30;100.00;100269.41;4971695;28;20023;-76
2023/08/04 01:59:21;;;;;;;41.75;19.30;;;;;;;24.23;100.00;100258.47;4971358;28;20509;-77
2023/08/04 02:01:47;;;;;;;30.30;19.83;;;;;;;24.31;100.00;100262.84;4971447;28;20039;-76
2023/08/04 02:04:12;;;;;;;42.85;20.88;;;;;;;24.36;100.00;100271.28;4971134;28;20049;-76
2023/08/04 02:06:37;;;;;;;44.90;20.35;;;;;;;;;;4971512;28;20054;-79
2023/08/04 02:09:03;;;;;;;36.67;19.73;;;;;;;24.32;100.00;100283.75;4971119;28;20089;-75
2023/08/04 02:11:30;;;;;;;35.20;20.58;;;;;;;24.33;100.00;100288.22;4971284;28;20027;-76
2023/08/04 02:13:57;;;;;;;34.45;20.13;;;;;;;24.24;100.00;100279.41;4971331;28;20022;-78
2023/08/04 02:16:22;;;;;;;26.88;18.02;;;;;;;24.29;100.00;100284.22;4971030;28;20031;-76
2023/08/04 02:18:48;;;;;;;35.90;19.23;;;;;;;24.21;100.00;100287.25;4971310;28;20049;-75
2023/08/04 02:21:13;;;;;;;38.25;20.45;;;;;;;24.23;100.00;100287.84;4970185;28;20022;-76
2023/08/04 02:23:39;;;;;;;29.88;20.27;;;;;;;24.29;100.00;100289.72;4971114;28;20026;-76
2023/08/04 02:26:04;;;;;;;39.83;20.67;;;;;;;24.28;100.00;100275.13;4970932;28;20037;-76
2023/08/04 02:28:29;;;;;;;33.38;18.58;;;;;;;24.33;100.00;100290.97;4971392;28;20035;-80
2023/08/04 02:30:55;;;;;;;38.25;18.88;;;;;;;24.38;100.00;100288.38;4971020;28;20038;-76
2023/08/04 02:33:20;;;;;;;43.38;20.75;;;;;;;24.38;100.00;100293.88;4970754;28;20031;-76
2023/08/04 02:35:46;;;;;;;29.75;21.13;;;;;;;24.39;100.00;100290.06;4971154;28;20026;-76
2023/08/04 02:38:12;;;;;;;56.25;23.52;;;;;;;24.39;100.00;100295.56;4970890;28;20038;-77
2023/08/04 02:40:38;;;;;;;31.85;18.95;;;;;;;24.45;100.00;100300.19;4969892;28;20022;-76
2023/08/04 02:43:04;;;;;;;33.38;18.60;;;;;;;24.43;100.00;100288.56;4971019;28;20027;-77
2023/08/04 02:45:29;;;;;;;43.35;19.33;;;;;;;24.45;100.00;100302.06;4970865;28;20034;-76
2023/08/04 02:47:54;;;;;;;42.78;19.50;;;;;;;24.37;100.00;100297.72;4970678;28;20026;-79
2023/08/04 02:50:20;;;;;;;37.28;19.85;;;;;;;24.40;100.00;100296.41;4970627;28;20411;-76
2023/08/04 02:52:45;;;;;;;31.35;19.08;;;;;;;24.40;100.00;100296.41;4970549;28;20038;-75
2023/08/04 02:55:12;;;;;;;31.33;19.02;;;;;;;24.45;100.00;100299.31;4970722;28;20031;-76
2023/08/04 02:57:38;;;;;;;32.47;18.95;;;;;;;24.45;100.00;100299.31;4970933;28;20031;-75
2023/08/04 03:00:04;;;;;;;30.40;20.10;;;;;;;24.43;100.00;100288.56;4970883;28;20054;-75
2023/08/04 03:02:30;;;;;;;32.22;18.90;;;;;;;24.45;100.00;100299.31;4970610;28;20027;-76
2023/08/04 03:04:55;;;;;;;50.65;20.50;;;;;;;24.41;100.00;100304.44;4971300;28;20501;-77
2023/08/04 03:07:21;;;;;;;41.35;20.85;;;;;;;24.36;100.00;100301.50;4970766;28;20077;-76
2023/08/04 03:09:46;;;;;;;41.72;19.27;;;;;;;24.37;100.00;100297.72;4970673;28;20031;-76
2023/08/04 03:12:12;;;;;;;30.73;19.55;;;;;;;24.39;100.00;100306.56;4971193;28;20031;-77
2023/08/04 03:14:37;;;;;;;29.67;20.63;;;;;;;24.38;100.00;100299.38;4972382;28;20090;-77
2023/08/04 03:17:03;;;;;;;56.55;19.35;;;;;;;24.37;100.00;100297.72;4975123;28;20110;-76
2023/08/04 03:19:28;;;;;;;41.35;21.70;;;;;;;24.40;100.00;100301.91;4990134;28;20042;-79
2023/08/04 03:21:53;;;;;;;38.88;20.63;;;;;;;24.41;100.00;100306.31;4993973;28;20027;-80
2023/08/04 03:24:19;;;;;;;41.78;21.23;;;;;;;24.44;100.00;100306.72;4993155;28;20037;-74
2023/08/04 03:26:44;;;;;;;42.10;22.63;;;;;;;24.43;100.00;100313.31;4972979;28;20031;-76
2023/08/04 03:29:10;;;;;;;45.97;22.77;;;;;;;24.36;100.00;100307.84;4972277;28;20034;-76
2023/08/04 03:31:35;;;;;;;41.97;23.25;;;;;;;24.36;100.00;100309.75;4973408;28;20038;-75
2023/08/04 03:34:00;;;;;;;32.17;21.67;;;;;;;24.40;100.00;100312.91;4975799;28;20026;-77
2023/08/04 03:36:26;;;;;;;41.45;21.05;;;;;;;24.40;100.00;100319.25;4975091;28;20027;-77
2023/08/04 03:38:51;;;;;;;43.30;22.55;;;;;;;24.42;100.00;100311.63;4974805;28;20462;-77
2023/08/04 03:41:17;;;;;;;55.70;22.13;;;;;;;24.42;100.00;100311.63;4974149;28;20031;-75
2023/08/04 03:43:42;;;;;;;47.38;21.60;;;;;;;24.46;100.00;100323.00;4974098;28;20458;-76
2023/08/04 03:46:08;;;;;;;40.28;22.25;;;;;;;24.47;100.00;100320.03;4973933;28;20050;-76
2023/08/04 03:48:33;;;;;;;61.60;24.80;;;;;;;24.42;100.00;100317.13;4973940;28;20023;-77
2023/08/04 03:50:59;;;;;;;42.33;22.20;;;;;;;24.49;99.88;100323.41;4973877;28;20066;-75
2023/08/04 03:53:24;;;;;;;41.38;21.00;;;;;;;24.55;100.00;100325.28;4973666;28;20069;-76
2023/08/04 03:55:50;;;;;;;64.78;22.85;;;;;;;24.55;100.00;100321.69;4973850;28;20038;-77
2023/08/04 03:58:15;;;;;;;61.22;25.65;;;;;;;24.50;99.53;100316.84;4973783;28;20107;-75
2023/08/04 04:00:40;;;;;;;53.28;23.42;;;;;;;24.59;100.00;100329.25;4973684;28;20423;-78
2023/08/04 04:03:06;;;;;;;54.90;23.38;;;;;;;24.59;100.00;100323.75;4973432;28;20394;-76
2023/08/04 04:05:31;;;;;;;84.13;27.05;;;;;;;24.66;99.88;100327.28;4973446;28;20466;-76
2023/08/04 04:07:57;;;;;;;71.88;25.23;;;;;;;24.69;98.66;100324.09;4973694;28;20037;-77
2023/08/04 04:10:22;;;;;;;77.03;26.35;;;;;;;24.74;99.13;100320.66;4973567;28;20025;-78
2023/08/04 04:12:48;;;;;;;87.80;29.42;;;;;;;24.83;99.62;100331.19;4974032;28;20441;-75
2023/08/04 04:15:13;;;;;;;89.50;25.67;;;;;;;24.85;100.00;100334.59;4973639;28;20026;-78
2023/08/04 04:17:41;;;;;;;90.45;24.90;;;;;;;24.92;100.00;100324.34;4978671;28;20053;-76
2023/08/04 04:20:07;;;;;;;58.90;24.15;;;;;;;24.99;100.00;100328.94;4976017;28;20051;-75
2023/08/04 04:22:34;;;;;;;94.55;26.90;;;;;;;25.00;100.00;100325.13;4973659;28;20026;-74
2023/08/04 04:25:00;;;;;;;77.70;28.42;;;;;;;25.16;100.00;100341.06;4972825;28;21084;-76
2023/08/04 04:27:25;;;;;;;89.47;27.65;;;;;;;25.19;100.00;100324.09;4972706;28;20093;-76
2023/08/04 04:29:51;;;;;;;93.57;26.25;;;;;;;25.31;100.00;100322.28;4972868;28;20537;-75
2023/08/04 04:32:16;;;;;;;88.72;31.40;;;;;;;25.40;100.00;100327.28;4973251;28;20027;-76
2023/08/04 04:34:42;;;;;;;100.00;34.83;;;;;;;25.46;100.00;100325.50;4973032;28;20034;-74
2023/08/04 04:37:07;;;;;;;78.88;34.85;;;;;;;25.59;100.00;100330.91;4972925;28;20022;-75
2023/08/04 04:39:33;;;;;;;76.53;30.95;;;;;;;25.69;100.00;100339.44;4973205;28;20026;-77
2023/08/04 04:41:58;;;;;;;88.10;34.10;;;;;;;25.78;100.00;100338.06;4973021;28;20023;-76
2023/08/04 04:44:23;;;;;;;70.15;33.55;;;;;;;25.89;100.00;100340.06;4972201;28;20034;-76
2023/08/04 04:46:49;;;;;;;53.13;35.85;;;;;;;26.04;100.00;100338.81;4972954;28;20031;-75
2023/08/04 04:49:16;;;;;;;58.53;36.95;;;;;;;26.11;100.00;100345.09;4973015;28;20118;-78
2023/08/04 04:51:42;;;;;;;68.75;41.28;;;;;;;26.17;100.00;100335.91;4970767;28;20031;-77
2023/08/04 04:54:08;;;;;;;48.83;38.83;;;;;;;26.25;100.00;100338.34;4972140;28;20165;-81
2023/08/04 04:56:33;;;;;;;81.40;38.17;;;;;;;26.33;100.00;100349.03;4972601;28;20127;-77
2023/08/04 04:58:59;;;;;;;48.00;34.80;;;;;;;26.37;100.00;100348.34;4972501;28;20038;-84
2023/08/04 05:01:24;;;;;;;67.65;34.13;;;;;;;26.40;100.00;100344.25;4973271;28;20063;-81
2023/08/04 05:03:50;;;;;;;64.45;33.92;;;;;;;26.40;100.00;100333.22;4954930;28;20041;-81
2023/08/04 05:06:15;;;;;;;72.35;30.77;;;;;;;26.49;100.00;100342.84;4973814;28;20027;-81
2023/08/04 05:08:40;;;;;;;50.13;25.55;;;;;;;26.55;100.00;100352.94;4974156;28;20045;-78
2023/08/04 05:11:06;;;;;;;32.95;21.98;;;;;;;26.64;100.00;100351.53;4972669;28;20041;-78
2023/08/04 05:14:07;;;;;;;33.97;22.50;;;;;;;26.72;100.00;100353.97;4972844;28;20023;-78
2023/08/04 05:16:32;;;;;;;37.70;22.88;;;;;;;26.73;100.00;100350.09;4972030;28;20062;-78
2023/08/04 05:18:57;;;;;;;61.40;22.85;;;;;;;26.73;100.00;100349.25;4972491;28;20102;-77
2023/08/04 05:21:23;;;;;;;33.88;20.35;;;;;;;26.90;100.00;100353.91;4971672;28;20033;-79
2023/08/04 05:23:48;;;;;;;39.92;20.23;;;;;;;26.88;100.00;100339.47;4971530;28;20022;-78
2023/08/04 05:26:14;;;;;;;41.03;21.08;;;;;;;26.93;100.00;100345.16;4972241;28;20038;-78
2023/08/04 05:28:39;;;;;;;53.10;24.30;;;;;;;27.04;100.00;100349.84;4972497;28;20034;-79
2023/08/04 05:31:05;;;;;;;36.47;20.50;;;;;;;27.04;100.00;100347.06;4972186;28;20034;-79
2023/08/04 05:33:32;;;;;;;27.90;19.00;;;;;;;27.14;100.00;100353.91;4973447;28;20031;-78
2023/08/04 05:35:58;;;;;;;42.28;19.63;;;;;;;27.20;100.00;100351.03;4972313;28;20041;-79
2023/08/04 05:38:24;;;;;;;29.27;18.92;;;;;;;27.23;100.00;100355.25;4971935;28;20457;-78
2023/08/04 05:40:50;;;;;;;25.58;17.50;;;;;;;27.32;100.00;100351.03;4971935;28;20043;-80
2023/08/04 05:43:16;;;;;;;57.20;19.88;;;;;;;27.30;100.00;100353.22;4971877;28;20110;-78
2023/08/04 05:45:44;;;;;;;43.90;17.75;;;;;;;27.36;100.00;100355.00;4970384;28;20030;-76
2023/08/04 05:48:09;;;;;;;37.25;18.33;;;;;;;27.41;99.67;100347.66;4971744;28;20070;-77
2023/08/04 05:50:35;;;;;;;32.85;16.55;;;;;;;27.45;98.82;100348.06;4972118;28;20031;-76
2023/08/04 05:53:01;;;;;;;33.97;14.40;;;;;;;27.51;95.58;100355.38;4971539;28;20165;-78
2023/08/04 05:55:27;;;;;;;29.23;12.95;;;;;;;27.56;94.05;100361.03;4970408;28;20026;-78
2023/08/04 05:57:54;;;;;;;15.15;11.57;;;;;;;27.55;92.92;100359.34;4971670;28;20388;-77
2023/08/04 06:00:23;;;;;;;16.40;10.68;;;;;;;27.53;92.70;100361.50;4971582;28;20058;-77
2023/08/04 06:02:48;;;;;;;39.42;11.60;;;;;;;27.48;92.48;100350.34;4971737;28;20034;-78
2023/08/04 06:05:14;;;;;;;24.02;11.93;;;;;;;27.60;91.98;100378.81;4971359;28;20034;-76
2023/08/04 06:07:40;;;;;;;22.80;11.25;;;;;;;27.61;90.92;100369.44;4971595;28;20027;-78
2023/08/04 06:10:07;;;;;;;27.80;11.02;;;;;;;27.58;91.30;100369.09;4971478;28;20078;-78
2023/08/04 06:12:32;;;;;;;17.50;11.30;;;;;;;27.65;92.45;100384.44;4969399;28;20027;-80
2023/08/04 06:14:58;;;;;;;21.10;11.90;;;;;;;27.65;94.46;100381.66;4972354;28;20027;-79
2023/08/04 06:17:23;;;;;;;36.78;13.57;;;;;;;27.50;95.85;100342.66;4971967;28;20031;-80
2023/08/04 06:19:49;;;;;;;22.48;12.00;;;;;;;27.72;96.90;100379.63;4970684;28;20402;-82
2023/08/04 06:22:15;;;;;;;30.60;14.00;;;;;;;27.74;97.81;100374.69;4971952;28;20050;-82
2023/08/04 06:24:41;;;;;;;25.35;12.07;;;;;;;27.73;94.75;100378.56;4971421;28;20058;-81
2023/08/04 06:27:07;;;;;;;16.13;10.70;;;;;;;27.80;95.31;100379.25;4971271;28;20062;-79
2023/08/04 06:29:33;;;;;;;16.10;11.40;;;;;;;27.72;95.33;100365.81;4970936;28;20450;-80
2023/08/04 06:31:59;;;;;;;19.60;11.52;;;;;;;27.77;94.43;100381.66;4971235;28;20037;-78
2023/08/04 06:34:24;;;;;;;16.10;12.18;;;;;;;27.82;97.42;100371.56;4970107;28;20034;-80
2023/08/04 06:36:50;;;;;;;18.58;12.57;;;;;;;27.90;98.08;100379.47;4970795;28;20065;-80
2023/08/04 06:39:15;;;;;;;29.48;14.68;;;;;;;27.89;98.00;100377.78;4971094;28;20045;-79
2023/08/04 06:41:41;;;;;;;17.40;11.38;;;;;;;27.84;95.93;100369.38;4971132;28;20023;-83
2023/08/04 06:44:07;;;;;;;14.80;11.10;;;;;;;28.01;95.92;100381.34;4971148;28;20039;-80
2023/08/04 06:46:32;;;;;;;21.75;10.00;;;;;;;27.91;93.41;100370.09;4970978;28;20509;-80
2023/08/04 06:48:58;;;;;;;33.92;11.40;;;;;;;27.96;92.72;100381.25;4971115;28;20031;-82
2023/08/04 06:51:23;;;;;;;23.83;10.07;;;;;;;27.98;90.85;100370.78;4970843;28;20027;-81
2023/08/04 06:53:49;;;;;;;20.50;10.20;;;;;;;27.92;90.62;100359.88;4969642;28;20621;-81
2023/08/04 06:56:15;;;;;;;33.90;17.30;;;;;;;28.09;90.10;100383.78;4970450;28;20490;-82
2023/08/04 06:58:40;;;;;;;34.03;14.07;;;;;;;28.11;90.83;100380.75;4971002;28;20713;-82
2023/08/04 07:01:05;;;;;;;33.30;11.15;;;;;;;28.21;90.59;100392.03;4970620;28;20209;-80
2023/08/04 07:03:31;;;;;;;24.48;11.20;;;;;;;28.15;90.68;100375.59;4970551;28;20088;-82
2023/08/04 07:05:56;;;;;;;27.58;11.10;;;;;;;28.27;92.29;100390.22;4970126;28;20027;-81
2023/08/04 07:08:22;;;;;;;20.17;8.95;;;;;;;28.22;87.85;100379.06;4970366;28;20104;-83
2023/08/04 07:10:47;;;;;;;20.17;10.00;;;;;;;28.13;85.11;100378.59;4970004;28;20037;-81
2023/08/04 07:13:13;;;;;;;22.58;9.02;;;;;;;28.16;85.61;100383.66;4970519;28;20050;-81
2023/08/04 07:15:38;;;;;;;11.85;7.50;;;;;;;28.23;85.18;100392.63;4970141;28;20058;-81
2023/08/04 07:18:05;;;;;;;18.55;9.27;;;;;;;28.07;83.68;100368.53;4970767;28;20054;-81
2023/08/04 07:20:31;;;;;;;24.45;8.07;;;;;;;28.23;84.87;100391.78;4970276;28;20037;-82
2023/08/04 07:22:57;;;;;;;12.63;8.23;;;;;;;28.32;87.11;100393.06;4970286;28;20038;-81
2023/08/04 07:25:22;;;;;;;10.23;7.78;;;;;;;28.16;84.00;100375.34;4970529;28;20023;-84
2023/08/04 07:27:48;;;;;;;21.75;8.13;;;;;;;28.31;80.59;100397.78;4970514;28;20045;-83
2023/08/04 07:30:15;;;;;;;27.13;9.10;;;;;;;28.33;81.43;100392.00;4972396;28;20027;-80
2023/08/04 07:32:40;;;;;;;14.35;8.90;;;;;;;28.41;83.44;100397.97;4970683;28;20033;-81
2023/08/04 07:35:06;;;;;;;44.03;10.18;;;;;;;28.46;84.47;100405.53;4970615;28;20109;-83
2023/08/04 07:37:32;;;;;;;61.10;12.10;;;;;;;28.46;83.04;100400.00;4970446;28;20081;-81
2023/08/04 07:39:58;;;;;;;16.77;7.57;;;;;;;28.54;81.47;100405.13;4970714;28;20038;-80
2023/08/04 07:42:23;;;;;;;15.68;7.15;;;;;;;28.53;83.18;100403.47;4970545;28;20034;-81
2023/08/04 07:44:49;;;;;;;7.78;6.28;;;;;;;28.43;76.25;100400.50;4970832;28;20521;-82
2023/08/04 07:47:14;;;;;;;16.85;7.20;;;;;;;28.46;74.97;100402.78;4970587;28;20037;-81
2023/08/04 07:49:40;;;;;;;19.65;7.72;;;;;;;28.50;77.17;100393.72;4970701;28;20074;-82
2023/08/04 07:52:06;;;;;;;25.08;6.90;;;;;;;28.61;73.85;100408.59;4970618;28;20051;-81
2023/08/04 07:54:31;;;;;;;12.48;6.15;;;;;;;28.53;77.20;100389.63;4970884;28;20026;-81
2023/08/04 07:56:57;;;;;;;19.92;7.50;;;;;;;28.61;80.26;100425.22;4971061;28;20415;-80
2023/08/04 07:59:22;;;;;;;12.45;6.05;;;;;;;28.54;77.59;100407.91;4971493;28;20137;-80
2023/08/04 08:01:47;;;;;;;14.88;6.63;;;;;;;28.51;73.87;100419.47;4975356;28;20214;-78
2023/08/04 08:04:13;;;;;;;11.02;6.28;;;;;;;28.48;74.99;100414.41;4976694;28;20714;-78
2023/08/04 08:06:38;;;;;;;12.93;6.47;;;;;;;28.43;74.74;100414.34;4984718;28;20569;-79
2023/08/04 08:09:04;;;;;;;30.00;8.70;;;;;;;28.48;76.22;100409.72;5003565;28;20027;-80
2023/08/04 08:11:29;;;;;;;23.88;6.63;;;;;;;28.55;73.17;100409.59;4982423;28;20058;-79
2023/08/04 08:13:55;;;;;;;29.90;6.80;;;;;;;28.68;75.47;100414.88;4971318;28;20720;-78
2023/08/04 08:16:20;;;;;;;15.45;6.35;;;;;;;28.72;74.68;100416.03;4971149;28;20034;-79
2023/08/04 08:18:46;;;;;;;21.08;6.60;;;;;;;28.76;71.72;100406.16;4972927;28;20038;-78
2023/08/04 08:21:12;;;;;;;16.67;6.35;;;;;;;28.88;69.55;100411.59;4973914;28;20096;-78
2023/08/04 08:23:38;;;;;;;10.65;5.95;;;;;;;28.96;69.14;100423.09;4973914;28;20026;-77
2023/08/04 08:26:04;;;;;;;8.23;5.70;;;;;;;28.96;69.22;100423.09;4973201;28;20482;-77
2023/08/04 08:28:30;;;;;;;23.10;7.65;;;;;;;28.95;71.88;100421.44;4973501;28;20525;-79
2023/08/04 08:30:56;;;;;;;9.32;5.15;;;;;;;28.95;69.67;100427.00;4973377;28;20072;-79
2023/08/04 08:33:21;;;;;;;13.48;5.22;;;;;;;28.95;67.86;100410.38;4973346;28;20077;-78
2023/08/04 08:35:47;;;;;;;13.80;5.82;;;;;;;29.02;68.16;100422.09;4973297;28;20031;-78
2023/08/04 08:38:13;;;;;;;53.63;8.20;;;;;;;29.03;67.61;100428.50;4972930;28;20026;-77
2023/08/04 08:40:38;;;;;;;15.80;6.93;;;;;;;29.04;72.54;100422.72;4971971;28;20530;-77
2023/08/04 08:43:04;;;;;;;11.57;6.63;;;;;;;29.03;69.13;100425.72;4973005;28;20031;-78
2023/08/04 08:45:29;;;;;;;7.50;5.25;;;;;;;29.06;66.17;100420.53;4973169;28;20755;-77
2023/08/04 08:47:57;;;;;;;18.60;6.28;;;;;;;29.06;69.47;100428.84;4972965;28;20027;-78
2023/08/04 08:50:24;;;;;;;20.27;6.22;;;;;;;29.01;70.12;100414.91;4970520;28;20891;-76
2023/08/04 08:53:00;;;;;;;13.43;6.10;;;;;;;29.05;70.11;100409.72;4973229;28;20031;-77
2023/08/04 08:55:27;;;;;;;14.70;6.80;;;;;;;29.15;72.61;100421.78;4972944;28;20100;-80
2023/08/04 08:57:54;;;;;;;8.90;5.95;;;;;;;29.21;74.12;100414.41;4972723;28;20038;-80
2023/08/04 09:00:22;;;;;;;8.13;5.00;;;;;;;29.23;68.90;100425.25;4972810;28;20058;-77
2023/08/04 09:02:48;;;;;;;19.00;5.82;;;;;;;29.24;68.84;100424.16;4972711;28;20075;-77
2023/08/04 09:05:16;;;;;;;24.10;6.07;;;;;;;29.14;67.35;100420.09;4972648;28;20088;-76
2023/08/04 09:07:42;;;;;;;12.30;6.07;;;;;;;29.26;68.00;100433.09;4972578;28;20031;-77
2023/08/04 09:10:08;;;;;;;27.90;7.13;;;;;;;29.26;69.83;100433.09;4972533;28;20027;-78
2023/08/04 09:12:34;;;;;;;23.40;8.73;;;;;;;29.29;68.12;100429.81;4972531;28;20027;-76
2023/08/04 09:15:01;;;;;;;16.92;7.38;;;;;;;29.26;70.54;100422.84;4972760;28;20030;-78
2023/08/04 09:17:38;;;;;;;19.17;5.38;;;;;;;29.23;67.74;100422.47;4972380;28;20114;-77
2023/08/04 09:20:09;;;;;;;25.70;6.93;;;;;;;29.13;69.55;100401.81;4970982;28;20031;-75
2023/08/04 09:22:40;;;;;;;15.82;6.45;;;;;;;29.38;67.88;100439.38;4972138;28;20502;-79
2023/08/04 09:25:07;;;;;;;21.02;6.30;;;;;;;29.37;69.26;100441.31;4972114;28;20034;-78
2023/08/04 09:27:41;;;;;;;48.20;9.38;;;;;;;29.48;72.50;100442.31;4969963;28;20541;-75
2023/08/04 09:30:09;;;;;;;19.65;8.07;;;;;;;29.47;75.62;100421.22;4971710;28;20035;-78
2023/08/04 09:32:45;;;;;;;40.05;14.38;;;;;;;29.65;75.44;100437.59;4971869;28;20406;-80
2023/08/04 09:35:12;;;;;;;17.30;7.97;;;;;;;29.69;70.74;100433.22;4971982;28;20058;-79
2023/08/04 09:37:38;;;;;;;13.68;6.80;;;;;;;29.66;67.83;100433.72;4971866;28;20027;-77
2023/08/04 09:40:16;;;;;;;16.73;7.45;;;;;;;29.71;66.57;100431.03;4971979;28;20147;-77
2023/08/04 09:42:42;;;;;;;14.95;6.25;;;;;;;29.72;62.99;100432.72;4971951;28;20026;-78
2023/08/04 09:45:11;;;;;;;17.73;7.68;;;;;;;29.73;66.08;100428.81;4972052;28;20038;-76
2023/08/04 09:47:36;;;;;;;16.38;7.05;;;;;;;29.64;66.38;100419.25;4970807;28;20023;-75
2023/08/04 09:50:09;;;;;;;23.17;7.30;;;;;;;29.84;65.96;100436.25;4972100;28;20108;-76
2023/08/04 09:52:35;;;;;;;11.55;6.00;;;;;;;29.74;61.92;100419.41;4971625;28;20023;-76
2023/08/04 09:55:00;;;;;;;12.70;7.60;;;;;;;29.85;66.66;100424.03;4972481;28;20035;-90
2023/08/04 09:57:36;;;;;;;20.80;7.25;;;;;;;29.89;65.34;100418.81;4990605;28;20030;-88
2023/08/04 10:00:05;;;;;;;11.07;6.97;;;;;;;29.84;66.09;100391.88;4991176;28;20051;-86
2023/08/04 10:02:31;;;;;;;18.92;6.85;;;;;;;29.84;65.38;100393.81;4976226;28;20030;-88
2023/08/04 10:04:58;;;;;;;19.75;7.82;;;;;;;29.92;64.76;100408.06;4977331;28;20130;-92
2023/08/04 10:07:25;;;;;;;15.82;7.13;;;;;;;30.02;64.79;100422.06;5000656;28;20045;-89
2023/08/04 10:09:50;;;;;;;12.40;5.97;;;;;;;30.11;62.01;100420.53;4982895;28;20166;-91
2023/08/04 10:12:17;;;;;;;13.80;6.15;;;;;;;30.28;63.41;100419.59;4993609;28;20487;-94
2023/08/04 10:14:44;;;;;;;11.75;5.80;;;;;;;30.36;60.71;100424.72;4996090;28;20180;-87
2023/08/04 10:17:10;;;;;;;31.58;6.72;;;;;;;30.34;58.96;100429.66;4994547;28;20045;-94
2023/08/04 10:19:36;;;;;;;11.43;5.57;;;;;;;30.40;61.33;100420.34;4979931;28;20429;-91
2023/08/04 10:22:08;;;;;;;9.23;5.15;;;;;;;30.40;60.16;100407.28;4996799;28;20522;-89
2023/08/04 10:24:40;;;;;;;15.07;6.85;;;;;;;30.58;60.42;100415.28;4987833;28;20108;-81
2023/08/04 10:27:21;;;;;;;;;;;;;;;30.75;59.23;100426.28;4988195;28;20058;-78
2023/08/04 10:30:02;;;;;;;24.95;7.88;;;;;;;30.76;61.08;100405.75;4987651;28;20459;-79
2023/08/04 10:32:36;;;;;;;13.27;6.10;;;;;;;30.90;59.31;100423.66;4987359;28;20034;-77
2023/08/04 10:35:04;;;;;;;9.48;5.30;;;;;;;30.93;57.35;100406.47;4987294;28;20276;-77
2023/08/04 10:37:30;;;;;;;39.53;8.38;;;;;;;31.00;55.14;100421.03;4987343;28;20107;-81
2023/08/04 10:39:55;;;;;;;7.93;4.80;;;;;;;31.02;56.16;100427.16;4987500;28;20042;-78
2023/08/04 10:42:26;;;;;;;13.20;6.60;;;;;;;31.05;57.63;100415.50;4986897;28;20034;-77
2023/08/04 10:44:52;;;;;;;9.77;4.78;;;;;;;31.21;56.97;100431.22;4984835;28;20463;-80
2023/08/04 10:47:38;;;;;;;17.48;5.72;;;;;;;31.35;53.69;100426.03;4970266;28;20054;-80
2023/08/04 10:50:05;;;;;;;21.83;6.38;;;;;;;31.44;52.72;100418.03;4970746;28;20473;-77
2023/08/04 10:52:31;;;;;;;24.15;7.13;;;;;;;31.61;51.27;100415.97;4970470;28;20062;-84
2023/08/04 10:54:57;;;;;;;9.85;5.90;;;;;;;31.61;50.62;100413.19;4970831;28;20034;-78
2023/08/04 10:57:24;;;;;;;12.75;5.95;;;;;;;31.65;51.23;100417.94;4970597;28;20030;-79
2023/08/04 10:59:50;;;;;;;10.68;4.78;;;;;;;31.64;50.26;100427.41;4970826;28;20061;-78
2023/08/04 11:02:23;;;;;;;16.70;6.00;;;;;;;31.65;49.50;100431.03;4969909;28;20031;-79
2023/08/04 11:04:50;;;;;;;13.18;5.10;;;;;;;31.69;47.64;100426.59;4970390;28;20030;-80
2023/08/04 11:07:16;;;;;;;14.50;5.45;;;;;;;31.67;48.29;100424.09;4970692;28;20490;-77